Time;durP1;ratioP1;P1;durP2;ratioP2;P2;SDS_P1;SDS_P2;PMS_P1;PMS_P2;Temp;Humidity;BMP_temperature;BMP_pressure;BME280_temperature;BME280_humidity;BME280_pressure;Samples;Min_cycle;Max_cycle;Signal;HPM_P1;HPM_P2
2023/08/31 00:01:38;;;;;;;;;1.00;1.00;;;;;23.62;57.92;99924.52;110056;1251;19663;-38
2023/08/31 00:04:07;;;;;;;;;1.00;1.00;;;;;23.63;58.12;99921.42;109958;1251;19244;-38
2023/08/31 00:06:35;;;;;;;;;1.00;1.00;;;;;23.63;58.07;99920.72;110022;1266;18644;-38
2023/08/31 00:09:05;;;;;;;;;1.00;1.00;;;;;23.63;57.83;99920.95;110016;1251;19620;-37
2023/08/31 00:11:33;;;;;;;;;2.00;1.33;;;;;23.63;58.04;99926.64;110045;1254;19320;-37
2023/08/31 00:14:00;;;;;;;;;1.00;1.00;;;;;23.63;58.03;99926.19;110026;1251;21892;-37
2023/08/31 00:16:27;;;;;;;;;1.00;1.00;;;;;23.65;57.78;99927.77;110042;1251;19624;-36
2023/08/31 00:18:55;;;;;;;;;1.00;1.00;;;;;23.64;57.94;99931.79;110013;1266;17840;-38
2023/08/31 00:21:22;;;;;;;;;1.00;1.00;;;;;23.64;58.07;99929.66;110053;1251;18579;-38
2023/08/31 00:23:49;;;;;;;;;1.00;1.00;;;;;23.64;57.79;99930.50;110026;1266;20784;-37
2023/08/31 00:26:17;;;;;;;;;1.00;1.00;;;;;23.64;57.92;99929.12;110049;1266;17927;-36
2023/08/31 00:28:44;;;;;;;;;1.00;1.00;;;;;23.65;57.96;99929.71;109830;1266;263730;-36
2023/08/31 00:31:11;;;;;;;;;1.00;1.00;;;;;23.65;57.94;99929.91;110035;1266;21904;-37
2023/08/31 00:33:39;;;;;;;;;1.00;1.00;;;;;23.67;58.00;99929.05;110040;1266;17875;-37
2023/08/31 00:36:06;;;;;;;;;1.00;1.00;;;;;23.66;57.89;99933.84;110033;1266;19066;-37
2023/08/31 00:38:33;;;;;;;;;1.00;1.00;;;;;23.66;57.65;99934.09;110047;1253;19603;-37
2023/08/31 00:41:01;;;;;;;;;1.00;1.00;;;;;23.66;57.83;99931.88;110033;1266;17849;-37
2023/08/31 00:43:29;;;;;;;;;2.00;2.00;;;;;23.65;57.75;99928.66;110046;1266;21360;-37
2023/08/31 00:45:58;;;;;;;;;1.00;1.00;;;;;23.65;57.92;99924.98;109999;1251;19849;-37
2023/08/31 00:48:25;;;;;;;;;1.00;1.00;;;;;23.66;57.73;99925.86;110063;1266;17889;-37
2023/08/31 00:50:52;;;;;;;;;1.00;1.00;;;;;23.66;57.79;99929.23;109968;1266;19886;-37
2023/08/31 00:53:20;;;;;;;;;1.00;1.00;;;;;23.67;57.58;99933.59;109926;1253;19676;-37
2023/08/31 00:55:47;;;;;;;;;1.00;1.00;;;;;23.67;57.60;99932.94;109937;1266;21464;-37
2023/08/31 00:58:14;;;;;;;;;1.00;1.00;;;;;23.67;57.65;99935.45;110053;1253;19944;-37
2023/08/31 01:00:41;;;;;;;;;1.00;1.00;;;;;23.66;57.67;99937.92;110052;1251;19669;-38
2023/08/31 01:03:09;;;;;;;;;2.00;2.00;;;;;23.67;57.59;99936.16;110065;1259;19127;-36
2023/08/31 01:05:37;;;;;;;;;1.00;1.00;;;;;23.69;57.69;99942.41;110046;1253;19931;-36
2023/08/31 01:08:04;;;;;;;;;1.00;1.00;;;;;23.69;57.46;99940.16;110048;1266;19569;-38
2023/08/31 01:10:31;;;;;;;;;1.00;1.00;;;;;23.68;57.52;99942.86;110035;1254;19412;-36
2023/08/31 01:12:59;;;;;;;;;1.00;1.00;;;;;23.68;57.79;99943.09;110031;1251;21656;-36
2023/08/31 01:15:26;;;;;;;;;1.00;1.00;;;;;23.68;57.51;99945.42;110034;1266;18177;-37
2023/08/31 01:17:53;;;;;;;;;1.00;1.00;;;;;23.68;57.58;99946.10;110047;1251;19034;-38
2023/08/31 01:20:21;;;;;;;;;1.00;1.00;;;;;23.68;57.51;99942.21;110025;1259;19607;-38
2023/08/31 01:22:49;;;;;;;;;1.00;1.00;;;;;23.68;57.79;99944.94;110042;1253;19682;-37
2023/08/31 01:25:16;;;;;;;;;1.00;1.00;;;;;23.68;57.57;99947.52;110024;1266;18963;-38
2023/08/31 01:27:43;;;;;;;;;1.00;1.00;;;;;23.68;57.54;99943.08;110042;1266;20367;-37
2023/08/31 01:30:11;;;;;;;;;1.00;1.00;;;;;23.70;57.59;99947.48;110054;1266;19562;-37
2023/08/31 01:32:38;;;;;;;;;1.00;1.00;;;;;23.69;57.54;99948.70;110055;1259;18478;-37
2023/08/31 01:35:06;;;;;;;;;1.00;1.00;;;;;23.69;57.49;99949.68;110051;1258;20437;-37
2023/08/31 01:37:33;;;;;;;;;1.00;1.00;;;;;23.70;57.39;99947.09;110048;1251;19635;-37
2023/08/31 01:40:00;;;;;;;;;1.00;1.00;;;;;23.70;57.45;99943.10;110037;1260;19163;-37
2023/08/31 01:42:28;;;;;;;;;1.00;1.00;;;;;23.70;57.46;99948.50;110046;1266;18593;-37
2023/08/31 01:44:55;;;;;;;;;1.00;1.00;;;;;23.70;57.44;99948.02;110049;1251;18163;-37
2023/08/31 01:47:22;;;;;;;;;1.00;1.00;;;;;23.69;57.49;99943.00;110037;1266;19163;-37
2023/08/31 01:49:50;;;;;;;;;1.00;1.00;;;;;23.71;57.52;99939.80;110040;1260;19759;-37
2023/08/31 01:52:17;;;;;;;;;1.00;1.00;;;;;23.68;57.25;99937.88;110060;1251;19638;-37
2023/08/31 01:54:44;;;;;;;;;1.00;1.00;;;;;23.70;57.43;99939.76;110040;1253;19323;-37
2023/08/31 01:57:12;;;;;;;;;1.00;1.00;;;;;23.69;57.56;99933.27;110050;1259;22102;-37
2023/08/31 01:59:39;;;;;;;;;1.00;1.00;;;;;23.69;57.39;99935.24;110034;1251;19606;-37
2023/08/31 02:02:06;;;;;;;;;1.00;1.00;;;;;23.69;57.37;99929.55;110036;1253;21734;-37
2023/08/31 02:04:34;;;;;;;;;1.00;1.00;;;;;23.70;57.38;99932.33;110066;1259;20102;-37
2023/08/31 02:07:01;;;;;;;;;1.00;1.00;;;;;23.68;57.47;99929.29;110045;1266;18190;-37
2023/08/31 02:09:28;;;;;;;;;1.00;1.00;;;;;23.68;57.42;99931.31;110057;1253;19261;-37
2023/08/31 02:11:56;;;;;;;;;1.00;1.00;;;;;23.71;57.28;99932.14;110016;1251;19994;-37
2023/08/31 02:14:23;;;;;;;;;1.00;1.00;;;;;23.72;57.26;99933.91;110032;1266;18189;-37
2023/08/31 02:16:51;;;;;;;;;1.00;1.00;;;;;23.71;57.33;99935.30;110054;1251;19188;-36
2023/08/31 02:19:18;;;;;;;;;1.00;1.00;;;;;23.70;57.21;99935.64;110046;1251;20005;-37
2023/08/31 02:21:45;;;;;;;;;1.00;1.00;;;;;23.71;57.24;99937.92;110051;1266;21075;-37
2023/08/31 02:24:13;;;;;;;;;1.00;1.00;;;;;23.71;57.31;99937.16;110032;1253;19509;-37
2023/08/31 02:26:40;;;;;;;;;1.00;1.00;;;;;23.74;57.12;99940.69;110050;1253;20020;-38
2023/08/31 02:29:07;;;;;;;;;1.00;1.00;;;;;23.73;57.24;99940.88;110036;1266;19515;-38
2023/08/31 02:31:35;;;;;;;;;1.00;1.00;;;;;23.72;57.26;99942.70;110080;1251;19279;-38
2023/08/31 02:34:02;;;;;;;;;1.00;1.00;;;;;23.72;57.28;99939.70;110015;1251;20062;-37
2023/08/31 02:36:29;;;;;;;;;1.00;1.00;;;;;23.71;57.13;99944.65;110060;1266;21879;-37
2023/08/31 02:38:57;;;;;;;;;1.00;1.00;;;;;23.71;57.34;99944.71;109910;1251;19386;-37
2023/08/31 02:41:24;;;;;;;;;1.00;1.00;;;;;23.71;57.22;99946.29;110027;1251;18592;-37
2023/08/31 02:43:51;;;;;;;;;1.00;1.00;;;;;23.72;57.26;99944.23;110099;1251;18192;-37
2023/08/31 02:46:19;;;;;;;;;1.00;1.00;;;;;23.72;57.21;99942.51;110032;1266;22045;-37
2023/08/31 02:48:46;;;;;;;;;1.00;1.00;;;;;23.72;57.06;99943.86;109959;1251;20451;-38
2023/08/31 02:51:13;;;;;;;;;1.00;1.00;;;;;23.72;57.26;99941.98;110002;1253;22100;-37
2023/08/31 02:53:41;;;;;;;;;1.00;1.00;;;;;23.72;57.10;99939.96;110035;1253;20842;-37
2023/08/31 02:56:08;;;;;;;;;1.00;1.00;;;;;23.74;56.99;99940.30;110037;1251;19952;-37
2023/08/31 02:58:35;;;;;;;;;1.00;1.00;;;;;23.73;57.07;99935.30;110025;1251;20011;-37
2023/08/31 03:01:03;;;;;;;;;1.00;1.00;;;;;23.74;57.24;99938.17;110036;1266;17909;-37
2023/08/31 03:03:30;;;;;;;;;1.00;1.00;;;;;23.77;57.02;99940.02;110049;1251;20187;-37
2023/08/31 03:05:57;;;;;;;;;1.00;1.00;;;;;23.75;56.99;99940.57;110048;1251;18143;-37
2023/08/31 03:08:25;;;;;;;;;1.00;1.00;;;;;23.74;56.93;99939.21;110038;1259;21199;-37
2023/08/31 03:10:53;;;;;;;;;1.00;1.00;;;;;23.75;57.02;99941.60;110007;1251;19154;-37
2023/08/31 03:13:20;;;;;;;;;1.00;1.00;;;;;23.75;56.79;99940.57;110075;1251;23309;-37
2023/08/31 03:15:47;;;;;;;;;2.00;1.00;;;;;23.73;57.17;99946.34;110054;1253;19379;-37
2023/08/31 03:18:15;;;;;;;;;1.00;1.00;;;;;23.75;57.05;99948.16;110028;1251;20034;-38
2023/08/31 03:20:42;;;;;;;;;1.00;1.00;;;;;23.75;57.07;99945.81;110011;1251;20724;-37
2023/08/31 03:23:11;;;;;;;;;1.00;1.00;;;;;23.76;57.07;99944.76;109963;1253;19242;-37
2023/08/31 03:25:38;;;;;;;;;1.00;1.00;;;;;23.74;56.98;99950.38;110077;1266;18575;-37
2023/08/31 03:28:05;;;;;;;;;1.00;1.00;;;;;23.76;56.84;99951.15;110039;1251;19581;-37
2023/08/31 03:30:32;;;;;;;;;1.00;1.00;;;;;23.76;56.93;99957.20;110039;1253;19248;-37
2023/08/31 03:33:00;;;;;;;;;1.00;1.00;;;;;23.76;56.96;99961.20;110031;1266;22131;-37
2023/08/31 03:35:28;;;;;;;;;1.00;1.00;;;;;23.75;56.90;99966.20;110046;1251;19678;-37
2023/08/31 03:37:56;;;;;;;;;1.00;1.00;;;;;23.77;57.10;99968.64;110042;1253;19477;-38
2023/08/31 03:40:23;;;;;;;;;1.00;1.00;;;;;23.75;56.88;99968.30;110035;1253;20008;-38
2023/08/31 03:42:52;;;;;;;;;1.00;1.00;;;;;23.75;56.89;99971.45;110037;1266;18201;-37
2023/08/31 03:45:19;;;;;;;;;1.00;1.00;;;;;23.76;57.00;99974.61;110041;1254;19365;-37
2023/08/31 03:47:47;;;;;;;;;1.00;1.00;;;;;23.77;56.87;99975.40;110046;1259;21314;-36
2023/08/31 03:50:14;;;;;;;;;1.00;1.00;;;;;23.80;56.88;99975.87;110034;1266;18146;-37
2023/08/31 03:52:41;;;;;;;;;1.00;1.00;;;;;23.83;56.76;99976.70;110024;1266;20170;-37
2023/08/31 03:55:09;;;;;;;;;1.00;1.00;;;;;23.80;56.70;99981.51;110060;1266;18660;-37
2023/08/31 03:57:36;;;;;;;;;1.00;1.00;;;;;23.83;56.50;99980.14;110010;1251;22131;-38
2023/08/31 04:00:08;;;;;;;;;1.00;1.00;;;;;23.81;56.81;99982.54;109962;1266;19249;-37
2023/08/31 04:02:37;;;;;;;;;2.00;2.00;;;;;23.79;56.64;99983.08;109993;1251;19972;-44
2023/08/31 04:05:05;;;;;;;;;1.00;1.00;;;;;23.79;56.91;99988.05;109908;1251;20182;-37
2023/08/31 04:07:33;;;;;;;;;1.00;1.00;;;;;23.79;56.67;99988.70;109897;1266;19231;-37
2023/08/31 04:10:00;;;;;;;;;1.00;1.00;;;;;23.79;56.65;99986.73;109915;1266;18596;-37
2023/08/31 04:12:29;;;;;;;;;1.00;1.00;;;;;23.80;56.51;99985.89;109893;1253;19700;-37
2023/08/31 04:14:56;;;;;;;;;1.00;1.00;;;;;23.80;56.58;99983.05;110032;1253;19468;-37
2023/08/31 04:17:23;;;;;;;;;1.00;1.00;;;;;23.79;56.62;99984.23;110020;1251;19882;-37
2023/08/31 04:19:51;;;;;;;;;1.00;1.00;;;;;23.79;56.53;99978.70;110035;1253;19698;-37
2023/08/31 04:22:18;;;;;;;;;1.00;1.00;;;;;23.81;56.59;99979.31;110038;1259;17911;-37
2023/08/31 04:24:46;;;;;;;;;1.00;1.00;;;;;23.79;56.76;99976.67;110015;1266;18711;-37
2023/08/31 04:27:13;;;;;;;;;1.00;1.00;;;;;23.79;56.52;99977.59;110030;1251;19646;-37
2023/08/31 04:29:40;;;;;;;;;1.00;1.00;;;;;23.81;56.55;99973.08;110039;1251;20223;-37
2023/08/31 04:32:08;;;;;;;;;1.00;1.00;;;;;23.81;56.67;99977.00;110031;1253;19931;-37
2023/08/31 04:34:35;;;;;;;;;1.00;1.00;;;;;23.81;56.56;99973.98;110034;1251;22976;-38
2023/08/31 04:37:03;;;;;;;;;1.00;1.00;;;;;23.83;56.32;99973.74;110038;1252;19315;-38
2023/08/31 04:39:30;;;;;;;;;1.00;1.00;;;;;23.80;56.56;99968.40;110032;1266;19998;-38
2023/08/31 04:41:57;;;;;;;;;1.00;1.00;;;;;23.80;56.58;99972.71;110052;1251;19608;-36
2023/08/31 04:44:24;;;;;;;;;1.00;1.00;;;;;23.79;56.87;99972.04;109998;1251;19166;-36
2023/08/31 04:46:54;;;;;;;;;1.00;1.00;;;;;23.79;56.71;99974.70;109928;1253;20019;-35
2023/08/31 04:49:22;;;;;;;;;1.00;1.00;;;;;23.79;56.50;99977.56;110092;1266;19691;-36
2023/08/31 04:51:49;;;;;;;;;1.00;1.00;;;;;23.79;56.35;99974.21;110066;1251;19438;-36
2023/08/31 04:54:16;;;;;;;;;1.00;1.00;;;;;23.79;56.38;99973.77;110074;1259;20004;-38
2023/08/31 04:56:44;;;;;;;;;1.00;1.00;;;;;23.79;56.37;99977.55;110072;1266;18227;-36
2023/08/31 04:59:11;;;;;;;;;2.00;2.00;;;;;23.82;55.98;99981.58;109869;1251;21636;-36
2023/08/31 05:01:38;;;;;;;;;2.00;2.00;;;;;23.85;55.96;99990.16;109978;1266;18608;-37
2023/08/31 05:04:05;;;;;;;;;2.00;2.00;;;;;23.86;56.02;99998.05;110005;1253;19627;-36
2023/08/31 05:06:33;;;;;;;;;1.00;1.00;;;;;23.86;56.41;100002.77;110040;1266;17870;-38
2023/08/31 05:09:00;;;;;;;;;2.00;2.00;;;;;23.87;56.97;100009.46;110036;1251;22130;-36
2023/08/31 05:11:27;;;;;;;;;2.00;2.00;;;;;23.93;57.13;100009.83;110040;1261;20376;-37
2023/08/31 05:13:55;;;;;;;;;2.00;2.00;;;;;24.01;57.45;100008.66;110037;1259;19249;-37
2023/08/31 05:16:22;;;;;;;;;166.00;131.00;;;;;24.08;57.30;100006.56;109944;1253;19978;-37
2023/08/31 05:18:50;;;;;;;;;202.00;141.00;;;;;24.07;57.26;100002.82;110072;1251;19065;-37
2023/08/31 05:21:17;;;;;;;;;239.00;176.00;;;;;24.03;55.47;100006.30;110007;1251;20066;-37
2023/08/31 05:23:44;;;;;;;;;251.00;174.00;;;;;23.86;53.63;99999.48;110021;1253;21312;-37
2023/08/31 05:26:11;;;;;;;;;224.00;159.00;;;;;23.76;52.79;100000.27;110021;1266;18948;-37
2023/08/31 05:28:39;;;;;;;;;200.50;144.50;;;;;23.67;53.47;100003.80;110000;1266;21999;-37
2023/08/31 05:31:06;;;;;;;;;172.50;129.50;;;;;23.78;53.64;100002.91;110032;1259;19781;-36
2023/08/31 05:33:34;;;;;;;;;180.00;125.50;;;;;23.83;54.10;100004.79;110063;1253;20447;-37
2023/08/31 05:36:03;;;;;;;;;149.50;114.50;;;;;23.86;54.11;100002.27;110019;1266;18616;-37
2023/08/31 05:38:30;;;;;;;;;146.50;104.00;;;;;23.83;54.32;100001.80;110009;1259;20044;-39
2023/08/31 05:40:58;;;;;;;;;113.50;88.50;;;;;23.84;54.59;100005.77;110036;1251;21553;-38
2023/08/31 05:43:25;;;;;;;;;108.00;85.00;;;;;23.83;54.36;100007.37;110004;1251;20016;-38
2023/08/31 05:45:52;;;;;;;;;103.00;70.00;;;;;23.85;54.58;100007.94;110016;1266;22050;-39
2023/08/31 05:48:19;;;;;;;;;93.00;69.00;;;;;23.87;54.20;100009.58;110041;1266;18930;-37
2023/08/31 05:50:47;;;;;;;;;93.33;65.33;;;;;23.85;54.52;100015.36;110005;1251;18174;-37
2023/08/31 05:53:14;;;;;;;;;80.00;58.00;;;;;23.87;54.37;100020.75;109947;1251;18920;-38
2023/08/31 05:55:41;;;;;;;;;72.00;52.00;;;;;23.89;54.50;100019.00;110047;1251;20092;-37
2023/08/31 05:58:09;;;;;;;;;40.00;33.50;;;;;23.85;53.03;100020.52;110066;1251;19685;-37
2023/08/31 06:00:38;;;;;;;;;25.50;20.50;;;;;23.64;52.16;100023.94;110050;1266;18937;-37
2023/08/31 06:03:06;;;;;;;;;17.00;15.50;;;;;23.44;51.84;100027.02;110003;1266;20022;-37
2023/08/31 06:05:33;;;;;;;;;16.50;13.50;;;;;23.22;52.04;100026.05;110041;1251;19482;-37
2023/08/31 06:08:01;;;;;;;;;15.67;14.33;;;;;23.22;52.32;100024.58;110037;1266;18576;-38
2023/08/31 06:10:29;;;;;;;;;20.00;16.00;;;;;23.34;52.34;100023.45;110008;1266;18627;-38
2023/08/31 06:12:56;;;;;;;;;17.00;13.50;;;;;23.43;52.50;100021.03;110023;1251;19589;-38
2023/08/31 06:15:23;;;;;;;;;17.00;11.50;;;;;23.53;52.54;100016.71;110020;1251;21110;-38
2023/08/31 06:17:51;;;;;;;;;18.00;15.00;;;;;23.63;52.73;100017.02;110022;1251;20088;-38
2023/08/31 06:20:18;;;;;;;;;129.50;97.50;;;;;23.69;52.71;100016.02;110043;1251;19536;-36
2023/08/31 06:22:45;;;;;;;;;166.00;127.00;;;;;23.66;52.06;100017.50;110024;1251;19997;-37
2023/08/31 06:25:15;;;;;;;;;182.00;133.00;;;;;23.59;51.43;100019.08;110034;1251;20427;-37
2023/08/31 06:27:42;;;;;;;;;143.50;105.00;;;;;23.51;51.79;100018.85;110040;1251;20003;-37
2023/08/31 06:30:12;;;;;;;;;95.00;68.00;;;;;23.44;51.45;100023.13;110048;1266;21988;-38
2023/08/31 06:32:39;;;;;;;;;89.00;64.00;;;;;23.38;51.61;100025.22;110012;1251;21187;-39
2023/08/31 06:35:06;;;;;;;;;77.00;54.00;;;;;23.36;51.44;100027.17;110038;1252;19611;-36
2023/08/31 06:37:34;;;;;;;;;82.00;59.00;;;;;23.30;51.58;100029.52;110010;1251;20009;-36
2023/08/31 06:40:01;;;;;;;;;48.00;38.00;;;;;23.25;51.78;100028.34;109939;1251;20078;-37
2023/08/31 06:42:28;;;;;;;;;44.50;33.50;;;;;23.33;51.62;100023.47;109963;1251;19603;-37
2023/08/31 06:44:56;;;;;;;;;24.50;20.50;;;;;23.35;51.27;100027.05;110060;1253;19883;-36
2023/08/31 06:47:24;;;;;;;;;19.00;16.50;;;;;23.30;51.37;100028.05;110070;1266;18564;-36
2023/08/31 06:49:52;;;;;;;;;12.00;12.00;;;;;23.35;51.27;100027.60;110022;1266;18165;-37
2023/08/31 06:52:20;;;;;;;;;10.00;10.00;;;;;23.39;51.21;100026.91;110041;1266;18772;-37
2023/08/31 06:54:47;;;;;;;;;12.00;9.00;;;;;23.37;51.39;100026.40;110016;1259;19902;-37
2023/08/31 06:57:14;;;;;;;;;10.00;9.00;;;;;23.28;51.16;100028.02;110021;1251;21332;-37
2023/08/31 06:59:42;;;;;;;;;7.00;7.00;;;;;23.29;51.58;100029.30;110038;1253;20184;-37
2023/08/31 07:02:09;;;;;;;;;8.00;8.00;;;;;23.30;51.63;100032.73;109963;1266;18615;-37
2023/08/31 07:04:36;;;;;;;;;8.50;7.00;;;;;23.40;51.33;100036.63;109929;1266;19055;-38
2023/08/31 07:07:05;;;;;;;;;6.00;6.00;;;;;23.41;51.38;100038.83;109939;1253;20131;-38
2023/08/31 07:09:32;;;;;;;;;8.00;6.00;;;;;23.45;51.37;100034.82;109968;1251;19636;-36
2023/08/31 07:11:59;;;;;;;;;8.50;8.00;;;;;23.47;51.43;100031.98;109973;1266;21574;-38
2023/08/31 07:14:27;;;;;;;;;6.00;6.00;;;;;23.46;51.64;100026.05;110039;1266;19005;-36
2023/08/31 07:16:54;;;;;;;;;6.00;6.00;;;;;23.46;51.40;100024.02;110049;1266;18250;-37
2023/08/31 07:19:21;;;;;;;;;8.00;8.00;;;;;23.50;51.54;100027.05;110038;1259;19478;-37
2023/08/31 07:21:49;;;;;;;;;6.00;6.00;;;;;23.55;51.69;100027.07;110023;1253;21834;-38
2023/08/31 07:24:16;;;;;;;;;6.00;6.00;;;;;23.59;51.30;100024.54;110038;1253;19646;-38
2023/08/31 07:26:43;;;;;;;;;6.00;5.00;;;;;23.60;51.32;100029.55;110030;1266;22044;-36
2023/08/31 07:29:10;;;;;;;;;5.50;5.50;;;;;23.65;51.25;100026.15;110053;1266;18536;-38
2023/08/31 07:31:38;;;;;;;;;8.50;6.00;;;;;23.67;51.32;100030.51;110032;1259;20189;-35
2023/08/31 07:34:05;;;;;;;;;9.00;8.00;;;;;23.65;51.08;100033.32;110080;1251;20550;-36
2023/08/31 07:36:32;;;;;;;;;8.00;8.00;;;;;23.68;50.67;100035.12;110097;1253;19952;-36
2023/08/31 07:39:00;;;;;;;;;8.50;8.50;;;;;23.69;50.10;100037.83;110105;1251;19649;-37
2023/08/31 07:41:27;;;;;;;;;9.00;8.00;;;;;23.51;50.18;100041.19;110088;1251;19321;-37
2023/08/31 07:43:55;;;;;;;;;8.00;6.00;;;;;23.53;50.24;100044.88;110068;1259;19930;-37
2023/08/31 07:46:22;;;;;;;;;9.00;8.00;;;;;23.60;50.31;100049.95;110105;1251;19718;-37
2023/08/31 07:48:50;;;;;;;;;8.00;8.00;;;;;23.56;50.32;100048.60;110052;1262;22563;-37
2023/08/31 07:51:22;;;;;;;;;10.00;10.00;;;;;23.61;50.53;100048.23;110049;1251;19994;-36
2023/08/31 07:53:50;;;;;;;;;8.00;8.00;;;;;23.61;50.63;100046.70;110100;1251;19675;-38
2023/08/31 07:56:17;;;;;;;;;9.50;8.50;;;;;23.59;50.84;100049.14;110108;1251;19325;-36
2023/08/31 07:58:44;;;;;;;;;8.33;8.00;;;;;23.59;50.66;100049.96;110072;1266;18590;-38
2023/08/31 08:01:12;;;;;;;;;9.00;8.00;;;;;23.60;50.80;100051.92;110051;1259;19537;-38
2023/08/31 08:03:39;;;;;;;;;9.00;9.00;;;;;23.59;50.56;100049.25;110067;1266;19290;-36
2023/08/31 08:06:06;;;;;;;;;11.00;11.00;;;;;23.61;50.70;100055.77;110032;1266;22088;-37
2023/08/31 08:08:34;;;;;;;;;8.00;8.00;;;;;23.46;50.50;100057.38;110067;1252;19625;-39
2023/08/31 08:11:02;;;;;;;;;10.00;10.00;;;;;23.46;50.68;100058.79;110038;1252;19361;-38
2023/08/31 08:13:29;;;;;;;;;9.00;8.50;;;;;23.54;50.83;100055.36;110014;1251;20009;-39
2023/08/31 08:15:57;;;;;;;;;8.00;7.33;;;;;23.58;50.58;100061.96;110033;1253;21707;-36
2023/08/31 08:18:24;;;;;;;;;9.00;8.00;;;;;23.56;50.67;100063.25;110025;1251;19513;-37
2023/08/31 08:20:51;;;;;;;;;8.00;6.00;;;;;23.63;50.51;100063.05;110049;1266;18585;-36
2023/08/31 08:23:19;;;;;;;;;6.00;6.00;;;;;23.62;50.47;100058.82;110007;1251;19710;-38
2023/08/31 08:25:46;;;;;;;;;8.00;8.00;;;;;23.63;50.33;100055.63;110075;1251;19628;-35
2023/08/31 08:28:13;;;;;;;;;8.00;8.00;;;;;23.66;50.12;100060.09;110055;1266;19298;-37
2023/08/31 08:30:41;;;;;;;;;8.00;8.00;;;;;23.69;48.73;100061.99;110027;1266;18187;-37
2023/08/31 08:33:08;;;;;;;;;9.00;9.00;;;;;23.62;48.74;100063.04;110029;1259;19329;-37
2023/08/31 08:35:35;;;;;;;;;10.00;9.00;;;;;23.60;49.13;100064.59;109994;1251;22597;-38
2023/08/31 08:38:03;;;;;;;;;9.00;9.00;;;;;23.62;49.14;100064.29;109945;1266;18204;-36
2023/08/31 08:40:30;;;;;;;;;10.50;9.50;;;;;23.55;48.85;100062.66;110064;1266;19293;-36
2023/08/31 08:42:58;;;;;;;;;12.00;10.00;;;;;23.32;48.25;100064.83;110078;1252;20037;-36
2023/08/31 08:45:25;;;;;;;;;10.50;9.00;;;;;23.16;48.28;100064.96;110042;1253;20092;-37
2023/08/31 08:47:52;;;;;;;;;11.00;11.00;;;;;23.02;47.84;100065.29;110046;1266;19704;-37
2023/08/31 08:50:20;;;;;;;;;9.00;9.00;;;;;23.16;48.02;100068.72;110035;1266;18587;-37
2023/08/31 08:52:47;;;;;;;;;11.00;11.00;;;;;23.24;48.80;100071.36;110041;1266;18688;-37
2023/08/31 08:55:14;;;;;;;;;10.00;10.00;;;;;23.22;48.24;100069.66;110037;1253;19494;-37
2023/08/31 08:57:42;;;;;;;;;15.00;11.00;;;;;23.15;48.00;100070.61;110056;1251;20025;-37
2023/08/31 09:00:10;;;;;;;;;17.00;15.00;;;;;23.29;47.87;100074.92;110019;1251;21598;-36
2023/08/31 09:02:38;;;;;;;;;13.00;12.00;;;;;23.23;47.76;100075.10;110022;1251;19559;-36
2023/08/31 09:05:05;;;;;;;;;13.00;13.00;;;;;23.19;47.67;100076.33;110047;1251;19951;-36
2023/08/31 09:07:33;;;;;;;;;18.33;15.33;;;;;23.08;47.02;100073.58;110019;1266;21973;-36
2023/08/31 09:10:00;;;;;;;;;16.33;14.33;;;;;22.73;47.94;100072.29;110044;1251;19551;-36
2023/08/31 09:12:27;;;;;;;;;15.00;15.00;;;;;22.88;48.25;100067.55;110016;1259;19837;-36
2023/08/31 09:14:55;;;;;;;;;17.00;15.00;;;;;23.08;48.00;100069.33;109929;1253;20090;-36
2023/08/31 09:17:22;;;;;;;;;17.00;17.00;;;;;22.97;47.64;100064.73;109885;1251;22082;-36
2023/08/31 09:19:49;;;;;;;;;16.00;15.00;;;;;23.02;48.11;100062.95;110051;1251;22028;-36
2023/08/31 09:22:17;;;;;;;;;16.00;16.00;;;;;23.06;48.16;100063.63;110062;1253;20503;-38
2023/08/31 09:24:44;;;;;;;;;19.00;17.00;;;;;23.10;48.15;100058.42;110032;1251;19678;-37
2023/08/31 09:27:12;;;;;;;;;19.00;18.00;;;;;22.90;49.27;100059.71;110055;1253;19945;-37
2023/08/31 09:29:40;;;;;;;;;19.50;19.00;;;;;23.04;50.15;100063.49;109984;1266;20005;-36
2023/08/31 09:32:07;;;;;;;;;16.00;15.00;;;;;22.96;49.69;100065.61;110010;1251;19592;-36
2023/08/31 09:34:35;;;;;;;;;19.00;19.00;;;;;23.05;49.57;100068.17;110062;1266;18585;-36
2023/08/31 09:37:03;;;;;;;;;19.00;19.00;;;;;23.04;49.88;100067.98;110053;1261;19911;-37
2023/08/31 09:39:30;;;;;;;;;19.50;19.50;;;;;23.04;50.35;100069.45;110029;1252;19639;-38
2023/08/31 09:41:59;;;;;;;;;23.00;23.00;;;;;22.96;49.87;100069.71;110028;1266;19998;-37
2023/08/31 09:44:26;;;;;;;;;19.00;18.00;;;;;22.90;50.42;100073.42;110015;1251;18636;-38
2023/08/31 09:46:53;;;;;;;;;22.00;19.00;;;;;22.91;50.42;100074.55;109899;1266;18165;-36
2023/08/31 09:49:21;;;;;;;;;20.00;18.00;;;;;23.10;50.43;100070.80;110048;1253;19964;-37
2023/08/31 09:51:48;;;;;;;;;24.00;22.00;;;;;23.21;51.64;100070.77;110045;1253;20050;-37
2023/08/31 09:54:16;;;;;;;;;19.50;19.00;;;;;23.33;51.75;100070.98;110081;1266;19442;-37
2023/08/31 09:56:44;;;;;;;;;20.00;20.00;;;;;23.45;51.40;100072.42;110069;1253;20023;-37
2023/08/31 09:59:11;;;;;;;;;20.00;19.00;;;;;23.56;52.76;100069.83;110040;1266;18743;-38
2023/08/31 10:01:38;;;;;;;;;21.00;20.00;;;;;23.57;52.29;100070.94;110023;1251;19558;-37
2023/08/31 10:04:08;;;;;;;;;20.00;19.00;;;;;23.51;51.40;100064.43;110056;1266;18639;-37
2023/08/31 10:06:35;;;;;;;;;21.50;21.00;;;;;23.46;50.78;100063.16;110041;1261;20039;-36
2023/08/31 10:09:03;;;;;;;;;20.00;20.00;;;;;23.29;50.67;100069.02;110006;1266;18149;-36
2023/08/31 10:11:30;;;;;;;;;22.00;20.50;;;;;23.16;50.76;100074.52;110015;1251;20048;-37
2023/08/31 10:13:58;;;;;;;;;26.00;23.00;;;;;23.10;50.81;100077.80;110043;1253;22022;-37
2023/08/31 10:16:25;;;;;;;;;27.00;25.50;;;;;23.04;50.88;100074.26;110029;1251;19600;-37
2023/08/31 10:18:52;;;;;;;;;27.00;24.00;;;;;23.06;50.98;100072.58;110052;1251;20041;-36
2023/08/31 10:21:20;;;;;;;;;23.00;23.00;;;;;23.02;51.27;100073.27;109913;1266;18576;-36
2023/08/31 10:23:47;;;;;;;;;32.50;25.50;;;;;23.10;51.22;100067.10;109995;1252;19627;-37
2023/08/31 10:26:14;;;;;;;;;23.00;23.00;;;;;23.15;51.32;100065.24;110043;1252;20094;-37
2023/08/31 10:28:42;;;;;;;;;27.00;24.50;;;;;23.25;51.89;100060.86;110068;1251;21667;-37
2023/08/31 10:31:09;;;;;;;;;24.00;23.00;;;;;23.37;51.44;100060.13;109904;1251;19605;-35
2023/08/31 10:33:36;;;;;;;;;22.50;22.00;;;;;23.41;51.04;100056.15;109951;1251;21409;-37
2023/08/31 10:36:04;;;;;;;;;23.00;22.00;;;;;23.36;51.06;100054.14;110069;1251;20081;-36
2023/08/31 10:38:31;;;;;;;;;24.00;21.50;;;;;23.24;51.08;100051.20;110083;1251;19782;-34
2023/08/31 10:40:58;;;;;;;;;25.00;23.00;;;;;23.10;51.44;100052.13;110061;1253;21367;-36
2023/08/31 10:43:27;;;;;;;;;25.00;23.00;;;;;22.99;50.95;100049.45;110167;1250;22905;-38
2023/08/31 10:45:54;;;;;;;;;25.00;25.00;;;;;22.89;50.82;100050.77;110192;1266;19513;-36
2023/08/31 10:48:22;;;;;;;;;26.00;25.00;;;;;22.71;51.59;100049.05;110186;1251;19999;-36
2023/08/31 10:50:49;;;;;;;;;28.50;26.00;;;;;22.85;51.26;100052.77;110177;1250;20122;-37
2023/08/31 10:53:16;;;;;;;;;25.00;22.00;;;;;22.77;51.73;100056.80;110217;1265;19483;-38
2023/08/31 10:55:44;;;;;;;;;28.00;27.00;;;;;22.82;51.52;100056.79;110196;1251;20000;-36
2023/08/31 10:58:11;;;;;;;;;28.00;26.00;;;;;22.75;51.08;100057.77;110181;1250;20031;-37
2023/08/31 11:00:38;;;;;;;;;24.50;24.50;;;;;22.76;51.28;100062.30;110202;1265;18133;-37
2023/08/31 11:03:06;;;;;;;;;28.00;27.00;;;;;22.68;51.07;100069.10;110198;1265;18623;-36
2023/08/31 11:05:34;;;;;;;;;29.00;26.00;;;;;22.69;50.49;100074.32;110160;1251;20297;-36
2023/08/31 11:08:02;;;;;;;;;29.50;26.00;;;;;22.74;50.46;100075.98;110198;1251;19546;-37
2023/08/31 11:10:30;;;;;;;;;24.50;24.50;;;;;22.77;50.52;100075.48;110197;1265;18560;-35
2023/08/31 11:12:57;;;;;;;;;33.00;29.00;;;;;22.65;50.51;100079.35;110219;1250;20087;-35
2023/08/31 11:15:25;;;;;;;;;27.50;26.50;;;;;22.62;50.04;100082.89;110150;1250;21839;-37